KSQL/SQL METAR and TAF weather

Enter ICAO airport designator
Station Type Date Time Source
KSQL METAR 2022/06/28 23:47 UTC NOAA

KSQL 282347Z 27015G21KT 10SM CLR 23/10 A3004


Station Type Date Time Source
KSQL Decoded METAR 2022/06/28 23:47 UTC NOAA

San Carlos Airport, CA, United States (KSQL) 37-31N 122-15W
Jun 28, 2022 - 07:47 PM EDT / 2022.06.28 2347 UTC
Wind: from the W (270 degrees) at 17 MPH (15 KT) gusting to 24 MPH (21 KT):0
Visibility: 10 mile(s):0
Sky conditions: clear
Temperature: 73 F (23 C)
Dew Point: 50 F (10 C)
Relative Humidity: 43%
Pressure (altimeter): 30.04 in. Hg (1017 hPa)
ob: KSQL 282347Z 27015G21KT 10SM CLR 23/10 A3004
cycle: 0

Station Type Date Time Source
KSQL TAF UTC NOAA

Error!

Example: see airport list